Time;durP1;ratioP1;P1;durP2;ratioP2;P2;SDS_P1;SDS_P2;PMS_P1;PMS_P2;Temp;Humidity;BMP_temperature;BMP_pressure;BME280_temperature;BME280_humidity;BME280_pressure;Samples;Min_cycle;Max_cycle;Signal;HPM_P1;HPM_P2
2022/11/08 00:02:32;;;;;;;;;;;;;;;12.74;100.00;100751.28;5023054;28;20069;-67
2022/11/08 00:04:57;;;;;;;15.18;2.70;;;;;;;12.73;100.00;100751.25;5015868;28;19921;-66
2022/11/08 00:15:37;;;;;;;;;;;;;;;12.64;100.00;100744.16;5014016;28;20142;-65
2022/11/08 00:18:06;;;;;;;7.78;2.05;;;;;;;12.67;100.00;100738.91;5013273;28;19921;-65
2022/11/08 00:20:31;;;;;;;9.55;1.83;;;;;;;12.67;100.00;100732.72;5023940;28;20033;-66
2022/11/08 00:22:57;;;;;;;12.18;2.08;;;;;;;12.67;100.00;100738.91;5017457;28;20030;-66
2022/11/08 00:25:22;;;;;;;7.45;2.08;;;;;;;12.56;100.00;100728.28;5013327;28;20025;-67
2022/11/08 00:27:47;;;;;;;9.10;1.85;;;;;;;12.60;100.00;100731.81;5025205;28;20022;-66
2022/11/08 00:30:13;;;;;;;3.33;1.67;;;;;;;12.58;100.00;100739.72;5013406;28;20064;-66
2022/11/08 00:32:38;;;;;;;12.18;2.35;;;;;;;12.60;100.00;100737.09;5013389;28;20034;-65
2022/11/08 00:35:04;;;;;;;16.10;2.83;;;;;;;12.58;100.00;100733.56;5016842;28;20030;-67
2022/11/08 00:37:29;;;;;;;8.63;2.25;;;;;;;12.49;100.00;100734.38;5016157;28;20036;-65
2022/11/08 00:39:55;;;;;;;7.00;2.08;;;;;;;12.48;100.00;100736.16;5017920;28;20025;-65
2022/11/08 00:42:20;;;;;;;6.22;1.80;;;;;;;12.45;100.00;100728.22;5023863;28;20032;-65
2022/11/08 00:44:45;;;;;;;8.15;2.42;;;;;;;12.43;100.00;100729.06;5017193;28;20060;-65
2022/11/08 00:47:11;;;;;;;12.35;2.53;;;;;;;12.40;100.00;100724.66;5013913;28;20660;-66
2022/11/08 00:49:36;;;;;;;13.05;2.80;;;;;;;12.40;100.00;100736.94;5023719;28;20371;-65
2022/11/08 00:52:02;;;;;;;7.15;2.35;;;;;;;12.39;100.00;100728.16;5019252;28;20430;-67
2022/11/08 00:54:27;;;;;;;11.35;2.33;;;;;;;12.41;100.00;100715.88;5023465;28;20448;-66
2022/11/08 00:56:53;;;;;;;12.60;1.75;;;;;;;12.43;100.00;100716.75;5016324;28;20037;-64
2022/11/08 00:59:19;;;;;;;10.57;2.28;;;;;;;12.39;100.00;100716.72;5016140;28;20083;-66
2022/11/08 01:01:45;;;;;;;14.30;2.08;;;;;;;12.42;100.00;100720.25;5025527;28;20151;-66
2022/11/08 01:04:13;;;;;;;8.32;1.77;;;;;;;12.39;100.00;100707.03;5022504;28;20026;-66
2022/11/08 01:06:39;;;;;;;5.75;2.15;;;;;;;12.38;100.00;100709.69;5024309;28;20025;-67
2022/11/08 01:09:06;;;;;;;10.40;1.70;;;;;;;12.36;100.00;100706.13;5022821;28;20028;-66
2022/11/08 01:11:31;;;;;;;4.18;1.85;;;;;;;12.35;100.00;100699.97;5028651;28;22080;-66
2022/11/08 01:13:59;;;;;;;8.63;1.80;;;;;;;12.25;100.00;100692.88;5031586;28;20029;-65
2022/11/08 01:16:27;;;;;;;11.20;2.00;;;;;;;12.27;100.00;100701.69;5019119;28;20461;-66
2022/11/08 01:18:54;;;;;;;7.03;2.08;;;;;;;12.20;100.00;100686.69;5018075;28;20404;-67
2022/11/08 01:21:20;;;;;;;12.13;2.60;;;;;;;12.24;100.00;100688.47;5024727;28;20029;-65
2022/11/08 01:23:46;;;;;;;6.75;2.08;;;;;;;12.21;100.00;100686.69;5015701;28;20371;-65
2022/11/08 01:26:18;;;;;;;10.45;2.20;;;;;;;12.19;100.00;100677.00;5014032;28;20040;-67
2022/11/08 01:28:43;;;;;;;18.13;2.75;;;;;;;12.16;100.00;100677.00;5022891;28;20022;-66
2022/11/08 01:31:14;;;;;;;11.93;2.35;;;;;;;12.17;100.00;100678.75;5030899;28;20438;-66
2022/11/08 01:33:40;;;;;;;6.40;1.95;;;;;;;12.14;100.00;100674.34;5025867;28;20072;-66
2022/11/08 01:36:07;;;;;;;21.58;3.35;;;;;;;12.12;100.00;100669.03;5024871;28;20057;-65
2022/11/08 01:38:33;;;;;;;14.15;2.50;;;;;;;12.09;100.00;100666.38;5015587;28;20057;-66
2022/11/08 01:40:58;;;;;;;11.50;2.00;;;;;;;12.06;100.00;100665.47;5025937;28;20045;-66
2022/11/08 01:43:24;;;;;;;8.52;2.10;;;;;;;12.01;100.00;100656.66;5012612;28;20056;-67
2022/11/08 01:46:14;;;;;;;8.32;1.95;;;;;;;12.04;100.00;100657.53;5012381;28;20037;-65
2022/11/08 01:48:47;;;;;;;6.18;1.90;;;;;;;12.01;100.00;100646.97;5017928;28;20034;-66
2022/11/08 01:51:15;;;;;;;10.00;2.30;;;;;;;12.01;100.00;100646.97;5024747;28;20077;-66
2022/11/08 01:53:40;;;;;;;14.38;2.30;;;;;;;11.99;100.00;100640.81;5013669;28;20043;-66
2022/11/08 01:56:07;;;;;;;5.95;2.05;;;;;;;11.96;100.00;100641.69;5026287;28;20136;-66
2022/11/08 01:58:36;;;;;;;7.78;1.85;;;;;;;11.93;100.00;100646.00;5019546;28;20105;-66
2022/11/08 02:01:02;;;;;;;13.45;2.45;;;;;;;11.92;100.00;100641.59;5029398;28;20056;-66
2022/11/08 02:03:31;;;;;;;7.43;1.70;;;;;;;11.90;100.00;100640.72;5017087;28;20025;-66
2022/11/08 02:05:57;;;;;;;10.00;2.63;;;;;;;11.85;100.00;100639.81;5029632;28;20025;-66
2022/11/08 02:08:33;;;;;;;14.18;2.45;;;;;;;11.86;100.00;100639.81;5022004;28;20623;-67
2022/11/08 02:11:00;;;;;;;10.23;2.20;;;;;;;11.79;100.00;100635.38;5023324;28;20034;-66
2022/11/08 02:13:28;;;;;;;6.50;2.13;;;;;;;11.77;100.00;100631.81;5020237;28;20432;-66
2022/11/08 02:15:54;;;;;;;8.50;1.48;;;;;;;11.79;100.00;100625.69;5024140;28;20025;-66
2022/11/08 02:18:23;;;;;;;9.07;2.13;;;;;;;11.78;100.00;100631.81;5030516;28;20405;-66
2022/11/08 02:21:19;;;;;;;10.82;2.05;;;;;;;11.74;100.00;100623.91;5028866;28;20466;-66
2022/11/08 02:23:44;;;;;;;14.00;2.53;;;;;;;11.67;100.00;100625.59;5032340;28;20429;-66
2022/11/08 02:26:10;;;;;;;10.27;2.20;;;;;;;11.65;100.00;100614.13;5024028;28;20026;-66
2022/11/08 02:28:44;;;;;;;12.63;2.10;;;;;;;11.62;100.00;100616.75;5027251;28;20496;-66
2022/11/08 02:31:10;;;;;;;;;;;;;;;11.56;100.00;100606.19;5029855;28;20544;-66
2022/11/08 02:33:36;;;;;;;14.27;2.38;;;;;;;11.52;100.00;100602.63;5031452;28;19913;-65
2022/11/08 02:36:02;;;;;;;8.48;2.35;;;;;;;11.48;100.00;100608.75;5017047;28;20026;-66
2022/11/08 02:38:28;;;;;;;6.53;1.85;;;;;;;11.46;100.00;100608.72;5031855;28;20101;-65
2022/11/08 02:40:55;;;;;;;13.95;2.97;;;;;;;11.48;100.00;100603.47;5015967;28;20380;-65
2022/11/08 02:43:21;;;;;;;7.20;2.80;;;;;;;11.46;100.00;100592.03;5027528;28;20026;-67
2022/11/08 02:45:47;;;;;;;11.82;2.42;;;;;;;11.44;100.00;100592.00;5019226;28;20026;-66
2022/11/08 02:48:13;;;;;;;5.35;1.70;;;;;;;11.44;100.00;100589.38;5025329;28;20022;-66
2022/11/08 02:50:38;;;;;;;5.65;2.15;;;;;;;11.39;100.00;100583.19;5026258;28;20120;-66
2022/11/08 02:53:04;;;;;;;14.68;2.40;;;;;;;11.38;100.00;100578.81;5017630;28;20411;-65
2022/11/08 02:55:30;;;;;;;6.63;2.40;;;;;;;11.35;100.00;100576.13;5029941;28;20053;-65
2022/11/08 02:57:56;;;;;;;9.55;1.90;;;;;;;11.36;100.00;100577.03;5021843;28;20029;-65
2022/11/08 03:00:21;;;;;;;6.35;2.10;;;;;;;11.35;100.00;100560.31;5024356;28;20545;-66
2022/11/08 03:02:50;;;;;;;8.65;1.88;;;;;;;11.33;100.00;100566.44;5028642;28;20665;-66
2022/11/08 03:05:16;;;;;;;7.50;2.42;;;;;;;11.29;100.00;100555.88;5032235;28;20029;-67
2022/11/08 03:07:42;;;;;;;5.57;1.90;;;;;;;11.25;100.00;100543.53;5027940;28;20022;-66
2022/11/08 03:10:08;;;;;;;10.25;3.17;;;;;;;11.24;100.00;100543.53;5026374;28;20025;-67
2022/11/08 03:12:33;;;;;;;6.28;2.13;;;;;;;11.24;100.00;100538.28;5029113;28;20113;-66
2022/11/08 03:14:59;;;;;;;8.38;2.53;;;;;;;11.25;100.00;100524.25;5020296;28;20407;-66
2022/11/08 03:17:24;;;;;;;10.43;2.30;;;;;;;11.17;100.00;100512.75;5015347;28;20029;-66
2022/11/08 03:19:50;;;;;;;9.63;2.20;;;;;;;11.19;100.00;100521.53;5023291;28;20018;-66
2022/11/08 03:22:15;;;;;;;11.20;2.28;;;;;;;11.20;100.00;100518.03;5028889;28;20064;-67
2022/11/08 03:24:40;;;;;;;5.97;2.10;;;;;;;11.23;100.00;100513.69;5017152;28;20056;-66
2022/11/08 03:27:06;;;;;;;13.32;3.00;;;;;;;11.29;100.00;100508.47;5015613;28;20033;-66
2022/11/08 03:29:31;;;;;;;5.80;2.10;;;;;;;11.29;100.00;100499.69;5014655;28;20033;-65
2022/11/08 03:31:56;;;;;;;4.43;2.17;;;;;;;11.33;100.00;100492.69;5021895;28;20442;-65
2022/11/08 03:34:22;;;;;;;10.68;2.08;;;;;;;11.31;100.00;100484.75;5015970;28;20091;-65
2022/11/08 03:36:47;;;;;;;6.60;2.17;;;;;;;11.34;100.00;100474.28;5032351;28;20104;-65
2022/11/08 03:39:12;;;;;;;4.90;2.00;;;;;;;11.36;100.00;100482.19;5014855;28;20075;-66
2022/11/08 03:41:38;;;;;;;5.75;1.95;;;;;;;11.36;100.00;100482.19;5028045;28;20049;-65
2022/11/08 03:44:04;;;;;;;8.15;1.98;;;;;;;11.33;100.00;100477.78;5014535;28;20026;-66
2022/11/08 03:46:29;;;;;;;14.23;2.47;;;;;;;11.32;100.00;100469.84;5021595;28;20026;-67
2022/11/08 03:48:54;;;;;;;6.13;1.88;;;;;;;11.33;100.00;100477.78;5025533;28;20497;-66
2022/11/08 03:51:20;;;;;;;8.20;2.15;;;;;;;11.27;100.00;100475.06;5029656;28;20021;-66
2022/11/08 03:53:45;;;;;;;7.97;1.90;;;;;;;11.27;100.00;100461.91;5020951;28;20026;-65
2022/11/08 03:56:10;;;;;;;8.32;1.92;;;;;;;11.23;100.00;100465.38;5026507;28;20049;-66
2022/11/08 03:58:36;;;;;;;7.13;1.92;;;;;;;11.24;100.00;100456.63;5017576;28;20112;-66
2022/11/08 04:01:05;;;;;;;8.00;2.58;;;;;;;11.20;100.00;100465.38;5028839;28;20029;-65
2022/11/08 04:03:31;;;;;;;8.13;2.00;;;;;;;11.18;100.00;100464.47;5024753;28;20021;-66
2022/11/08 04:05:59;;;;;;;9.13;1.95;;;;;;;11.23;100.00;100460.13;5030906;28;20028;-66
2022/11/08 04:08:24;;;;;;;3.97;1.80;;;;;;;11.22;100.00;100458.38;5028066;28;20407;-66
2022/11/08 04:10:54;;;;;;;5.60;1.85;;;;;;;11.22;100.00;100456.63;5024184;28;20060;-65
2022/11/08 04:16:03;;;;;;;6.22;1.92;;;;;;;11.17;100.00;100449.56;5025955;28;20392;-67
2022/11/08 04:21:21;;;;;;;8.68;2.17;;;;;;;11.13;100.00;100460.03;5018143;28;20036;-65
2022/11/08 04:23:51;;;;;;;5.35;2.00;;;;;;;11.10;100.00;100446.84;5030637;28;20505;-66
2022/11/08 04:26:18;;;;;;;7.53;2.10;;;;;;;11.10;100.00;100444.22;5024886;28;20053;-67
2022/11/08 04:28:43;;;;;;;6.28;1.92;;;;;;;11.10;100.00;100438.97;5027293;28;20036;-66
2022/11/08 04:31:17;;;;;;;10.90;2.40;;;;;;;11.05;100.00;100442.44;5024207;28;20026;-65
2022/11/08 04:33:43;;;;;;;4.50;2.00;;;;;;;11.06;100.00;100429.28;5029322;28;20067;-66
2022/11/08 04:36:14;;;;;;;6.90;1.90;;;;;;;11.05;100.00;100419.59;5026786;28;20079;-64
2022/11/08 04:38:39;;;;;;;7.93;2.17;;;;;;;11.06;100.00;100421.38;5025897;28;20112;-67
2022/11/08 04:41:10;;;;;;;6.45;2.70;;;;;;;11.06;100.00;100418.75;5019152;28;20489;-64
2022/11/08 04:43:35;;;;;;;6.88;1.85;;;;;;;11.11;100.00;100417.03;5013399;28;20021;-65
2022/11/08 04:46:03;;;;;;;9.82;2.10;;;;;;;11.13;100.00;100417.03;5020853;28;20593;-65
2022/11/08 04:48:29;;;;;;;4.80;1.95;;;;;;;11.12;100.00;100403.00;5023660;28;20432;-66
2022/11/08 04:50:55;;;;;;;10.32;1.73;;;;;;;11.16;100.00;100400.38;5016633;28;20026;-66
2022/11/08 04:53:21;;;;;;;8.45;1.70;;;;;;;11.14;100.00;100408.28;5025749;28;20095;-66
2022/11/08 04:55:46;;;;;;;9.32;1.70;;;;;;;11.13;100.00;100407.38;5024299;28;20043;-66
2022/11/08 04:58:12;;;;;;;6.57;1.70;;;;;;;11.12;100.00;100395.09;5018968;28;20045;-66
2022/11/08 05:00:38;;;;;;;4.93;1.92;;;;;;;11.17;100.00;100389.00;5019805;28;20029;-65
2022/11/08 05:03:03;;;;;;;4.63;1.77;;;;;;;11.19;100.00;100389.88;5020289;28;20036;-67
2022/11/08 05:05:28;;;;;;;3.70;2.03;;;;;;;11.20;100.00;100384.59;5016639;28;20048;-65
2022/11/08 05:07:54;;;;;;;3.70;1.60;;;;;;;11.19;100.00;100384.59;5012912;28;20113;-66
2022/11/08 05:10:19;;;;;;;6.10;2.00;;;;;;;11.23;100.00;100378.47;5012679;28;20371;-66
2022/11/08 05:12:44;;;;;;;7.38;1.83;;;;;;;11.27;100.00;100372.34;5020775;28;20060;-67
2022/11/08 05:15:11;;;;;;;6.50;1.60;;;;;;;11.27;100.00;100375.00;5027662;28;20572;-66
2022/11/08 05:17:36;;;;;;;4.05;2.40;;;;;;;11.35;100.00;100367.13;5030485;28;20037;-66
2022/11/08 05:25:31;;;;;;;;;;;;;;;11.38;100.00;100356.59;5025977;28;20043;-66
2022/11/08 05:27:56;;;;;;;2.20;1.23;;;;;;;11.36;100.00;100368.91;5028141;28;19913;-66
2022/11/08 05:30:21;;;;;;;5.85;1.77;;;;;;;11.37;100.00;100363.66;5018979;28;20437;-66
2022/11/08 05:32:50;;;;;;;4.10;1.48;;;;;;;11.37;100.00;100363.66;5030133;28;20481;-65
2022/11/08 05:35:17;;;;;;;3.88;1.45;;;;;;;11.38;100.00;100357.50;5028382;28;20033;-65
2022/11/08 05:37:43;;;;;;;4.57;1.83;;;;;;;11.38;100.00;100359.25;5024023;28;20034;-66
2022/11/08 05:40:09;;;;;;;3.95;1.27;;;;;;;11.36;100.00;100348.69;5028710;28;20076;-65
2022/11/08 05:42:34;;;;;;;3.08;1.50;;;;;;;11.37;100.00;100347.84;5023929;28;20042;-66
2022/11/08 05:44:59;;;;;;;2.70;1.30;;;;;;;11.39;100.00;100348.72;5024961;28;20068;-66
2022/11/08 05:47:24;;;;;;;3.30;1.55;;;;;;;11.40;100.00;100342.56;5021268;28;20018;-66
2022/11/08 05:49:50;;;;;;;3.30;1.60;;;;;;;11.43;100.00;100342.59;5025789;28;20463;-67
2022/11/08 05:52:15;;;;;;;4.75;1.70;;;;;;;11.42;100.00;100346.13;5030395;28;20017;-66
2022/11/08 05:54:40;;;;;;;3.90;1.52;;;;;;;11.43;100.00;100342.59;5024305;28;20467;-66
2022/11/08 05:57:06;;;;;;;4.40;1.70;;;;;;;11.43;100.00;100337.31;5022876;28;20052;-67
2022/11/08 05:59:31;;;;;;;3.92;2.67;;;;;;;11.44;100.00;100344.34;5028762;28;20121;-66
2022/11/08 06:01:56;;;;;;;4.15;1.67;;;;;;;11.45;100.00;100338.22;5028380;28;20060;-66
2022/11/08 06:04:22;;;;;;;8.07;1.70;;;;;;;11.40;100.00;100337.31;5021380;28;20474;-66
2022/11/08 06:06:48;;;;;;;5.55;1.77;;;;;;;11.39;100.00;100327.63;5018846;28;20034;-68
2022/11/08 06:09:14;;;;;;;3.88;1.30;;;;;;;11.39;100.00;100324.13;5029693;28;20033;-67
2022/11/08 06:11:39;;;;;;;7.45;1.40;;;;;;;11.35;100.00;100325.88;5030579;28;20025;-66
2022/11/08 06:14:05;;;;;;;4.22;1.65;;;;;;;11.36;100.00;100324.13;5032666;28;20045;-66
2022/11/08 06:16:30;;;;;;;6.80;1.90;;;;;;;11.34;100.00;100321.50;5027121;28;20106;-65
2022/11/08 06:18:55;;;;;;;4.93;1.70;;;;;;;11.35;100.00;100322.34;5029893;28;20492;-67
2022/11/08 06:21:21;;;;;;;4.18;1.42;;;;;;;11.32;100.00;100317.97;5017699;28;20030;-66
2022/11/08 06:23:51;;;;;;;4.63;1.85;;;;;;;11.33;100.00;100319.72;5022092;28;20077;-66
2022/11/08 06:26:16;;;;;;;9.20;1.83;;;;;;;11.34;100.00;100317.97;5034376;28;21316;-67
2022/11/08 06:28:42;;;;;;;4.63;1.70;;;;;;;11.31;100.00;100321.44;5019235;28;20034;-67
2022/11/08 06:31:07;;;;;;;4.60;1.45;;;;;;;11.32;100.00;100323.22;5033829;28;20661;-67
2022/11/08 06:33:33;;;;;;;4.68;1.60;;;;;;;11.36;100.00;100318.88;5027274;28;20021;-67
2022/11/08 06:35:58;;;;;;;7.20;1.38;;;;;;;11.37;100.00;100316.22;5042124;28;20063;-66
2022/11/08 06:38:24;;;;;;;3.35;1.38;;;;;;;11.40;100.00;100318.88;5044724;28;20032;-66
2022/11/08 06:40:50;;;;;;;2.55;1.33;;;;;;;11.42;100.00;100337.31;5038849;28;20033;-66
2022/11/08 06:43:15;;;;;;;4.15;1.33;;;;;;;11.46;100.00;100316.28;5040398;28;20064;-68
2022/11/08 06:45:41;;;;;;;5.10;1.60;;;;;;;11.49;100.00;100315.41;5036498;28;20017;-67
2022/11/08 06:48:08;;;;;;;2.88;1.25;;;;;;;11.45;100.00;100311.00;5043313;28;20083;-67
2022/11/08 06:50:34;;;;;;;7.80;1.90;;;;;;;11.47;100.00;100312.75;5040495;28;20025;-66
2022/11/08 06:53:07;;;;;;;2.40;1.50;;;;;;;11.51;100.00;100323.31;5040152;28;20118;-67
2022/11/08 06:55:34;;;;;;;3.75;1.52;;;;;;;11.52;100.00;100315.41;5030134;28;20060;-66
2022/11/08 06:58:00;;;;;;;3.13;1.33;;;;;;;11.58;100.00;100299.63;5015827;28;20041;-66
2022/11/08 07:00:25;;;;;;;4.18;1.60;;;;;;;11.62;100.00;100325.13;5015121;28;20049;-69
2022/11/08 07:03:02;;;;;;;4.25;1.33;;;;;;;11.64;100.00;100302.28;5026096;28;20029;-66
2022/11/08 07:05:28;;;;;;;5.03;1.52;;;;;;;11.68;100.00;100302.28;5021234;28;20502;-65
2022/11/08 07:07:56;;;;;;;8.07;1.48;;;;;;;11.69;100.00;100312.81;5025756;28;20045;-66
2022/11/08 07:10:24;;;;;;;3.55;1.67;;;;;;;11.70;100.00;100303.19;5013341;28;20168;-66
2022/11/08 07:12:58;;;;;;;4.88;1.40;;;;;;;11.75;100.00;100306.72;5016768;28;20425;-65
2022/11/08 07:15:23;;;;;;;1.65;1.40;;;;;;;11.69;100.00;100298.78;5028529;28;20109;-67
2022/11/08 07:17:48;;;;;;;2.83;1.30;;;;;;;11.72;100.00;100320.78;5019612;28;20509;-67
2022/11/08 07:20:14;;;;;;;7.70;1.98;;;;;;;11.69;100.00;100315.47;5015927;28;20033;-67
2022/11/08 07:22:39;;;;;;;3.00;1.17;;;;;;;11.71;100.00;100321.63;5023420;28;20409;-66
2022/11/08 07:25:05;;;;;;;1.85;1.33;;;;;;;11.78;100.00;100312.00;5032756;28;20403;-66
2022/11/08 07:27:30;;;;;;;2.67;1.20;;;;;;;11.76;100.00;100313.72;5031172;28;20043;-66
2022/11/08 07:29:56;;;;;;;4.35;1.58;;;;;;;11.76;100.00;100319.91;5031744;28;20382;-66
2022/11/08 07:32:21;;;;;;;4.32;1.55;;;;;;;11.80;100.00;100311.13;5034049;28;20029;-66
2022/11/08 07:34:46;;;;;;;16.05;2.08;;;;;;;11.79;100.00;100312.00;5031704;28;20029;-67
2022/11/08 07:37:12;;;;;;;3.60;1.48;;;;;;;11.79;100.00;100313.75;5029236;28;20764;-66
2022/11/08 07:39:37;;;;;;;6.68;2.30;;;;;;;11.77;100.00;100329.56;5023679;28;20439;-66
2022/11/08 07:42:02;;;;;;;4.70;1.80;;;;;;;11.82;100.00;100330.44;5013631;28;20109;-67
2022/11/08 07:44:28;;;;;;;3.47;1.95;;;;;;;11.80;100.00;100318.13;5028791;28;20504;-67
2022/11/08 07:46:54;;;;;;;3.85;1.67;;;;;;;11.79;100.00;100319.03;5020461;28;20032;-68
2022/11/08 07:49:19;;;;;;;4.53;1.80;;;;;;;11.82;100.00;100325.19;5017760;28;20465;-69
2022/11/08 07:51:44;;;;;;;4.18;1.65;;;;;;;11.84;100.00;100321.66;5016635;28;20029;-68
2022/11/08 07:54:10;;;;;;;3.88;1.70;;;;;;;11.81;100.00;100312.91;5014404;28;20470;-68
2022/11/08 07:56:35;;;;;;;7.13;2.00;;;;;;;11.79;100.00;100319.91;5013954;28;20054;-68
2022/11/08 07:59:00;;;;;;;7.55;1.90;;;;;;;11.82;100.00;100324.31;5014788;28;20072;-68
2022/11/08 08:01:26;;;;;;;4.07;1.63;;;;;;;11.83;100.00;100318.16;5014204;28;20508;-68
2022/11/08 08:03:51;;;;;;;6.05;1.75;;;;;;;11.89;100.00;100312.88;5015235;28;20079;-68
2022/11/08 08:06:16;;;;;;;4.03;1.88;;;;;;;11.89;100.00;100309.38;5014208;28;20664;-68
2022/11/08 08:08:41;;;;;;;4.90;1.85;;;;;;;11.94;100.00;100307.66;5014048;28;20060;-68
2022/11/08 08:11:08;;;;;;;2.85;1.60;;;;;;;11.98;100.00;100331.41;5013819;28;20122;-68
2022/11/08 08:13:33;;;;;;;4.63;1.75;;;;;;;11.98;100.00;100339.31;5013930;28;20054;-68
2022/11/08 08:16:00;;;;;;;5.80;1.52;;;;;;;12.03;100.00;100327.91;5013852;28;20064;-68
2022/11/08 08:18:26;;;;;;;2.08;1.40;;;;;;;12.06;100.00;100320.00;5015837;28;20031;-68
2022/11/08 08:20:51;;;;;;;5.10;1.40;;;;;;;12.07;100.00;100322.66;5033585;28;20029;-68
2022/11/08 08:23:16;;;;;;;5.00;1.60;;;;;;;12.16;100.00;100334.09;5033075;28;20057;-69
2022/11/08 08:25:42;;;;;;;3.70;1.50;;;;;;;12.19;100.00;100342.00;5033118;28;20021;-69
2022/11/08 08:28:09;;;;;;;3.90;1.38;;;;;;;12.22;100.00;100328.81;5023877;28;20458;-68
2022/11/08 08:30:35;;;;;;;5.80;1.83;;;;;;;12.27;100.00;100321.78;5013502;28;20105;-68
2022/11/08 08:33:13;;;;;;;2.55;1.20;;;;;;;12.28;100.00;100318.28;5013526;28;20030;-68
2022/11/08 08:35:41;;;;;;;3.53;1.90;;;;;;;12.31;100.00;100310.38;5014529;28;20037;-68
2022/11/08 08:38:08;;;;;;;4.50;1.60;;;;;;;12.32;100.00;100304.22;5013732;28;20393;-68
2022/11/08 08:40:33;;;;;;;4.78;1.73;;;;;;;12.33;100.00;100311.25;5013443;28;20029;-70
2022/11/08 08:43:00;;;;;;;2.42;1.60;;;;;;;12.39;100.00;100310.38;5013564;28;20493;-68
2022/11/08 08:45:26;;;;;;;6.63;1.58;;;;;;;12.40;100.00;100310.38;5013947;28;20124;-70
2022/11/08 08:47:53;;;;;;;2.42;1.38;;;;;;;12.46;100.00;100310.34;5013166;28;20022;-70
2022/11/08 08:50:19;;;;;;;3.30;1.40;;;;;;;12.44;100.00;100311.25;5013372;28;20029;-70
2022/11/08 08:52:45;;;;;;;4.88;1.60;;;;;;;12.41;100.00;100308.59;5013315;28;20060;-69
2022/11/08 08:55:10;;;;;;;5.20;1.50;;;;;;;12.44;100.00;100304.22;5013360;28;20071;-70
2022/11/08 08:57:35;;;;;;;4.72;1.33;;;;;;;12.46;100.00;100313.00;5013197;28;20053;-70
2022/11/08 09:00:01;;;;;;;6.80;1.88;;;;;;;12.51;100.00;100305.09;5013274;28;20025;-70
2022/11/08 09:02:27;;;;;;;12.63;2.10;;;;;;;12.52;100.00;100301.59;5012436;28;20029;-70
2022/11/08 09:04:52;;;;;;;7.70;2.13;;;;;;;12.57;100.00;100304.22;5012899;28;20029;-69
2022/11/08 09:07:17;;;;;;;5.80;1.88;;;;;;;12.65;100.00;100310.38;5010223;28;20524;-69
2022/11/08 09:09:42;;;;;;;2.80;1.67;;;;;;;12.60;100.00;100317.41;5009218;28;20061;-68
2022/11/08 09:12:08;;;;;;;4.57;1.67;;;;;;;12.60;100.00;100320.03;5020061;28;20030;-69
2022/11/08 09:14:33;;;;;;;4.72;1.90;;;;;;;12.64;100.00;100329.72;5010680;28;20470;-70
2022/11/08 09:16:58;;;;;;;5.50;1.77;;;;;;;12.65;100.00;100335.00;5011081;28;20029;-69
2022/11/08 09:19:24;;;;;;;5.35;1.65;;;;;;;12.68;100.00;100328.84;5012250;28;20026;-69
2022/11/08 09:21:49;;;;;;;4.00;1.90;;;;;;;12.69;100.00;100327.97;5012706;28;20017;-69
2022/11/08 09:24:16;;;;;;;3.13;1.63;;;;;;;12.70;100.00;100319.16;5012761;28;20382;-70
2022/11/08 09:26:41;;;;;;;10.27;2.47;;;;;;;12.75;100.00;100324.44;5012940;28;20034;-69
2022/11/08 09:29:06;;;;;;;8.90;2.03;;;;;;;12.67;100.00;100315.63;5024327;28;20033;-69
2022/11/08 09:31:32;;;;;;;4.03;1.60;;;;;;;12.71;100.00;100327.97;5032576;28;20032;-70
2022/11/08 09:33:57;;;;;;;11.20;2.10;;;;;;;12.67;100.00;100332.38;5032737;28;20084;-70
2022/11/08 09:36:22;;;;;;;4.18;2.03;;;;;;;12.73;100.00;100324.44;5032642;28;20032;-70
2022/11/08 09:38:47;;;;;;;10.10;1.98;;;;;;;12.76;100.00;100284.81;5014268;28;20031;-70
2022/11/08 09:41:16;;;;;;;5.85;2.22;;;;;;;12.84;100.00;100276.91;5019273;28;20029;-71
2022/11/08 09:43:51;;;;;;;4.40;1.75;;;;;;;12.94;100.00;100317.38;5032256;28;20032;-70
2022/11/08 09:46:25;;;;;;;5.80;2.05;;;;;;;13.00;100.00;100309.44;5016053;28;20152;-69
2022/11/08 09:48:52;;;;;;;10.73;1.90;;;;;;;13.07;100.00;100305.91;5012829;28;20438;-70
2022/11/08 09:51:21;;;;;;;8.02;1.83;;;;;;;13.12;100.00;100293.56;5012379;28;20030;-70
2022/11/08 09:54:00;;;;;;;3.05;1.77;;;;;;;13.15;100.00;100296.19;5026169;28;20037;-70
2022/11/08 09:56:37;;;;;;;2.30;1.67;;;;;;;13.21;100.00;100308.53;5012002;28;20105;-71
2022/11/08 09:59:25;;;;;;;4.90;2.13;;;;;;;13.16;100.00;100305.00;5015359;28;20140;-70
2022/11/08 10:01:50;;;;;;;4.28;1.45;;;;;;;13.21;100.00;100294.41;5019242;28;20494;-69
2022/11/08 10:04:20;;;;;;;4.10;1.60;;;;;;;13.16;100.00;100299.72;5028198;28;20033;-71
2022/11/08 10:07:20;;;;;;;2.88;1.65;;;;;;;13.22;100.00;100302.34;5031895;28;20116;-68
2022/11/08 10:10:26;;;;;;;6.45;1.75;;;;;;;13.27;100.00;100308.50;5030101;28;20377;-70
2022/11/08 10:13:03;;;;;;;5.10;2.03;;;;;;;13.30;100.00;100308.47;5032446;28;20052;-69
2022/11/08 10:15:41;;;;;;;3.70;1.65;;;;;;;13.34;100.00;100317.28;5032157;28;20032;-70
2022/11/08 10:18:13;;;;;;;4.88;1.85;;;;;;;13.37;100.00;100304.06;5030317;28;20128;-70
2022/11/08 10:20:56;;;;;;;7.90;1.73;;;;;;;13.47;100.00;100320.81;5024822;28;20033;-69
2022/11/08 10:24:10;;;;;;;8.45;1.67;;;;;;;13.59;100.00;100314.56;5010823;28;20053;-69
2022/11/08 10:26:46;;;;;;;4.13;1.90;;;;;;;13.67;100.00;100307.47;5006076;28;20133;-70
2022/11/08 10:29:26;;;;;;;2.95;1.60;;;;;;;13.68;100.00;100313.66;5029838;28;20017;-69
2022/11/08 10:31:59;;;;;;;9.07;2.20;;;;;;;13.72;100.00;100310.97;5029042;28;20035;-69
2022/11/08 10:34:31;;;;;;;3.78;1.63;;;;;;;13.76;100.00;100314.50;5032540;28;20048;-69
2022/11/08 10:37:04;;;;;;;3.28;1.50;;;;;;;13.78;100.00;100316.25;5032170;28;20522;-69
2022/11/08 10:39:37;;;;;;;5.03;1.77;;;;;;;13.77;100.00;100319.78;5019425;28;20013;-69
2022/11/08 10:42:06;;;;;;;3.17;1.38;;;;;;;13.80;100.00;100327.69;5027016;28;20144;-69
2022/11/08 10:44:33;;;;;;;6.95;1.58;;;;;;;13.85;100.00;100316.22;5016438;28;20033;-68
2022/11/08 10:47:01;;;;;;;2.53;1.50;;;;;;;13.87;100.00;100325.88;5033069;28;20108;-70
2022/11/08 10:49:35;;;;;;;9.02;1.48;;;;;;;13.99;100.00;100330.25;5034792;28;20064;-69
2022/11/08 10:52:16;;;;;;;4.47;1.45;;;;;;;14.02;100.00;100319.63;5030717;28;20022;-69
2022/11/08 10:54:50;;;;;;;4.25;1.50;;;;;;;14.08;100.00;100324.91;5015327;28;20025;-70
2022/11/08 10:57:30;;;;;;;5.95;1.50;;;;;;;14.28;100.00;100322.13;5014702;28;20049;-69
2022/11/08 11:00:13;;;;;;;3.13;1.30;;;;;;;14.37;100.00;100325.59;5034809;28;20029;-70
2022/11/08 11:02:39;;;;;;;4.18;1.38;;;;;;;14.56;100.00;100313.97;5015576;28;20030;-70
2022/11/08 11:05:17;;;;;;;9.98;1.50;;;;;;;14.52;100.00;100319.31;5014013;28;20132;-70
2022/11/08 11:08:08;;;;;;;6.07;1.50;;;;;;;14.45;100.00;100313.19;5015287;28;20091;-70
2022/11/08 11:10:44;;;;;;;5.88;1.83;;;;;;;14.55;100.00;100312.19;5017045;28;20046;-70
2022/11/08 11:13:23;;;;;;;3.20;1.50;;;;;;;14.61;100.00;100322.75;5026345;28;20022;-70
2022/11/08 11:15:54;;;;;;;10.77;2.60;;;;;;;14.87;99.82;100320.75;5020890;28;20042;-69
2022/11/08 11:18:25;;;;;;;5.90;1.40;;;;;;;15.14;99.54;100317.00;5012847;28;20018;-69
2022/11/08 11:21:09;;;;;;;6.25;1.50;;;;;;;15.24;96.25;100310.66;5021681;28;20030;-69
2022/11/08 11:24:04;;;;;;;5.80;1.75;;;;;;;15.24;96.19;100323.06;5012511;28;21294;-71
2022/11/08 11:26:53;;;;;;;6.25;1.33;;;;;;;15.29;95.99;100314.16;5013313;28;20034;-71
2022/11/08 11:29:23;;;;;;;1.98;1.40;;;;;;;15.35;94.44;100315.84;5013330;28;20033;-69
2022/11/08 11:31:51;;;;;;;3.25;1.40;;;;;;;15.26;95.26;100308.00;5028554;28;20047;-69
2022/11/08 11:34:16;;;;;;;8.32;1.50;;;;;;;15.43;95.02;100313.97;5015591;28;20025;-69
2022/11/08 11:36:47;;;;;;;8.37;1.80;;;;;;;15.52;96.17;100319.19;5021536;28;20040;-69
2022/11/08 11:39:23;;;;;;;3.60;1.70;;;;;;;15.47;95.10;100281.22;5024683;28;20356;-69
2022/11/08 11:41:57;;;;;;;6.63;1.50;;;;;;;15.70;94.49;100311.88;5016156;28;20121;-70